sensor_id;sensor_type;location;lat;lon;timestamp;temperature;humidity
39503;DHT22;26970;49.900;10.774;2022-07-01T00:00:31;21.30;99.90
39503;DHT22;26970;49.900;10.774;2022-07-01T00:02:57;21.20;99.90
39503;DHT22;26970;49.900;10.774;2022-07-01T00:05:23;21.10;99.90
39503;DHT22;26970;49.900;10.774;2022-07-01T00:07:49;21.00;99.90
39503;DHT22;26970;49.900;10.774;2022-07-01T00:10:15;20.90;99.90
39503;DHT22;26970;49.900;10.774;2022-07-01T00:12:41;20.90;99.90
39503;DHT22;26970;49.900;10.774;2022-07-01T00:15:07;20.80;99.90
39503;DHT22;26970;49.900;10.774;2022-07-01T00:17:35;20.80;99.90
39503;DHT22;26970;49.900;10.774;2022-07-01T00:20:02;20.80;99.90
39503;DHT22;26970;49.900;10.774;2022-07-01T00:22:27;20.70;99.90
39503;DHT22;26970;49.900;10.774;2022-07-01T00:24:54;20.70;99.90
39503;DHT22;26970;49.900;10.774;2022-07-01T00:27:22;20.60;99.90
39503;DHT22;26970;49.900;10.774;2022-07-01T00:29:48;20.60;99.90
39503;DHT22;26970;49.900;10.774;2022-07-01T00:32:13;20.50;99.90
39503;DHT22;26970;49.900;10.774;2022-07-01T00:34:39;20.50;99.90
39503;DHT22;26970;49.900;10.774;2022-07-01T00:37:04;20.50;99.90
39503;DHT22;26970;49.900;10.774;2022-07-01T00:39:30;20.50;99.90
39503;DHT22;26970;49.900;10.774;2022-07-01T00:42:01;20.40;99.90
39503;DHT22;26970;49.900;10.774;2022-07-01T00:44:27;20.40;99.90
39503;DHT22;26970;49.900;10.774;2022-07-01T00:46:53;20.30;99.90
39503;DHT22;26970;49.900;10.774;2022-07-01T00:49:19;20.30;99.90
39503;DHT22;26970;49.900;10.774;2022-07-01T00:51:45;20.20;99.90
39503;DHT22;26970;49.900;10.774;2022-07-01T00:54:11;20.10;99.90
39503;DHT22;26970;49.900;10.774;2022-07-01T00:56:37;20.20;99.90
39503;DHT22;26970;49.900;10.774;2022-07-01T00:59:03;20.10;99.90
39503;DHT22;26970;49.900;10.774;2022-07-01T01:01:29;20.10;99.90
39503;DHT22;26970;49.900;10.774;2022-07-01T01:03:55;20.00;99.90
39503;DHT22;26970;49.900;10.774;2022-07-01T01:06:21;19.90;99.90
39503;DHT22;26970;49.900;10.774;2022-07-01T01:08:47;19.80;99.90
39503;DHT22;26970;49.900;10.774;2022-07-01T01:11:15;19.70;99.90
39503;DHT22;26970;49.900;10.774;2022-07-01T01:14:11;19.60;99.90
39503;DHT22;26970;49.900;10.774;2022-07-01T01:16:37;19.70;99.90
39503;DHT22;26970;49.900;10.774;2022-07-01T01:19:07;19.60;99.90
39503;DHT22;26970;49.900;10.774;2022-07-01T01:21:33;19.50;99.90
39503;DHT22;26970;49.900;10.774;2022-07-01T01:23:59;19.60;99.90
39503;DHT22;26970;49.900;10.774;2022-07-01T01:26:25;19.50;99.90
39503;DHT22;26970;49.900;10.774;2022-07-01T01:28:51;19.40;99.90
39503;DHT22;26970;49.900;10.774;2022-07-01T01:31:26;19.20;99.90
39503;DHT22;26970;49.900;10.774;2022-07-01T01:33:53;19.20;99.90
39503;DHT22;26970;49.900;10.774;2022-07-01T01:36:19;19.10;99.90
39503;DHT22;26970;49.900;10.774;2022-07-01T01:38:45;19.00;99.90
39503;DHT22;26970;49.900;10.774;2022-07-01T01:41:11;18.90;99.90
39503;DHT22;26970;49.900;10.774;2022-07-01T01:43:36;18.70;99.90
39503;DHT22;26970;49.900;10.774;2022-07-01T01:46:03;18.80;99.90
39503;DHT22;26970;49.900;10.774;2022-07-01T01:48:29;18.70;99.90
39503;DHT22;26970;49.900;10.774;2022-07-01T01:50:56;18.60;99.90
39503;DHT22;26970;49.900;10.774;2022-07-01T01:53:21;18.50;99.90
39503;DHT22;26970;49.900;10.774;2022-07-01T01:55:47;18.60;99.90
39503;DHT22;26970;49.900;10.774;2022-07-01T01:58:12;18.60;99.90
39503;DHT22;26970;49.900;10.774;2022-07-01T02:00:38;18.50;99.90
39503;DHT22;26970;49.900;10.774;2022-07-01T02:03:03;18.40;99.90
39503;DHT22;26970;49.900;10.774;2022-07-01T02:05:30;18.40;99.90
39503;DHT22;26970;49.900;10.774;2022-07-01T02:07:55;18.30;99.90
39503;DHT22;26970;49.900;10.774;2022-07-01T02:10:21;18.40;99.90
39503;DHT22;26970;49.900;10.774;2022-07-01T02:12:46;18.40;99.90
39503;DHT22;26970;49.900;10.774;2022-07-01T02:15:13;18.40;99.90
39503;DHT22;26970;49.900;10.774;2022-07-01T02:17:38;18.40;99.90
39503;DHT22;26970;49.900;10.774;2022-07-01T02:20:04;18.40;99.90
39503;DHT22;26970;49.900;10.774;2022-07-01T02:22:30;18.40;99.90
39503;DHT22;26970;49.900;10.774;2022-07-01T02:24:56;18.40;99.90
39503;DHT22;26970;49.900;10.774;2022-07-01T02:27:22;18.40;99.90
39503;DHT22;26970;49.900;10.774;2022-07-01T02:29:47;18.40;99.90
39503;DHT22;26970;49.900;10.774;2022-07-01T02:32:13;18.30;99.90
39503;DHT22;26970;49.900;10.774;2022-07-01T02:34:38;18.30;99.90
39503;DHT22;26970;49.900;10.774;2022-07-01T02:37:04;18.10;99.90
39503;DHT22;26970;49.900;10.774;2022-07-01T02:39:29;17.90;99.90
39503;DHT22;26970;49.900;10.774;2022-07-01T02:41:55;18.00;99.90
39503;DHT22;26970;49.900;10.774;2022-07-01T02:44:39;18.00;99.90
39503;DHT22;26970;49.900;10.774;2022-07-01T02:47:04;18.10;99.90
39503;DHT22;26970;49.900;10.774;2022-07-01T02:49:31;18.20;99.90
39503;DHT22;26970;49.900;10.774;2022-07-01T02:51:56;18.20;99.90
39503;DHT22;26970;49.900;10.774;2022-07-01T02:54:22;18.20;99.90
39503;DHT22;26970;49.900;10.774;2022-07-01T02:56:47;18.20;99.90
39503;DHT22;26970;49.900;10.774;2022-07-01T02:59:13;18.20;99.90
39503;DHT22;26970;49.900;10.774;2022-07-01T03:01:38;18.10;99.90
39503;DHT22;26970;49.900;10.774;2022-07-01T03:04:04;18.10;99.90
39503;DHT22;26970;49.900;10.774;2022-07-01T03:06:29;18.10;99.90
39503;DHT22;26970;49.900;10.774;2022-07-01T03:08:55;18.10;99.90
39503;DHT22;26970;49.900;10.774;2022-07-01T03:11:21;18.00;99.90
39503;DHT22;26970;49.900;10.774;2022-07-01T03:13:46;18.10;99.90
39503;DHT22;26970;49.900;10.774;2022-07-01T03:16:12;18.00;99.90
39503;DHT22;26970;49.900;10.774;2022-07-01T03:18:37;18.00;99.90
39503;DHT22;26970;49.900;10.774;2022-07-01T03:21:03;18.00;99.90
39503;DHT22;26970;49.900;10.774;2022-07-01T03:23:28;18.00;99.90
39503;DHT22;26970;49.900;10.774;2022-07-01T03:25:54;17.90;99.90
39503;DHT22;26970;49.900;10.774;2022-07-01T03:28:19;17.80;99.90
39503;DHT22;26970;49.900;10.774;2022-07-01T03:30:46;17.70;99.90
39503;DHT22;26970;49.900;10.774;2022-07-01T03:33:11;17.70;99.90
39503;DHT22;26970;49.900;10.774;2022-07-01T03:35:37;17.60;99.90
39503;DHT22;26970;49.900;10.774;2022-07-01T03:38:06;17.60;99.90
39503;DHT22;26970;49.900;10.774;2022-07-01T03:40:34;17.50;99.90
39503;DHT22;26970;49.900;10.774;2022-07-01T03:43:00;17.50;99.90
39503;DHT22;26970;49.900;10.774;2022-07-01T03:45:26;17.30;99.90
39503;DHT22;26970;49.900;10.774;2022-07-01T03:47:52;17.00;99.90
39503;DHT22;26970;49.900;10.774;2022-07-01T03:50:20;16.70;99.90
39503;DHT22;26970;49.900;10.774;2022-07-01T03:52:46;16.50;99.90
39503;DHT22;26970;49.900;10.774;2022-07-01T03:55:12;16.50;99.90
39503;DHT22;26970;49.900;10.774;2022-07-01T03:57:38;16.60;99.90
39503;DHT22;26970;49.900;10.774;2022-07-01T04:00:05;16.70;99.90
39503;DHT22;26970;49.900;10.774;2022-07-01T04:02:31;16.70;99.90
39503;DHT22;26970;49.900;10.774;2022-07-01T04:04:57;16.50;99.90
39503;DHT22;26970;49.900;10.774;2022-07-01T04:07:23;16.40;99.90
39503;DHT22;26970;49.900;10.774;2022-07-01T04:09:49;16.50;99.90
39503;DHT22;26970;49.900;10.774;2022-07-01T04:12:15;16.40;99.90
39503;DHT22;26970;49.900;10.774;2022-07-01T04:14:40;16.20;99.90
39503;DHT22;26970;49.900;10.774;2022-07-01T04:17:06;16.20;99.90
39503;DHT22;26970;49.900;10.774;2022-07-01T04:19:32;16.20;99.90
39503;DHT22;26970;49.900;10.774;2022-07-01T04:21:58;16.30;99.90
39503;DHT22;26970;49.900;10.774;2022-07-01T04:24:42;16.30;99.90
39503;DHT22;26970;49.900;10.774;2022-07-01T04:27:07;16.40;99.90
39503;DHT22;26970;49.900;10.774;2022-07-01T04:29:33;16.40;99.90
39503;DHT22;26970;49.900;10.774;2022-07-01T04:31:59;16.30;99.90
39503;DHT22;26970;49.900;10.774;2022-07-01T04:34:24;16.30;99.90
39503;DHT22;26970;49.900;10.774;2022-07-01T04:36:50;16.30;99.90
39503;DHT22;26970;49.900;10.774;2022-07-01T04:39:16;16.20;99.90
39503;DHT22;26970;49.900;10.774;2022-07-01T04:41:41;16.20;99.90
39503;DHT22;26970;49.900;10.774;2022-07-01T04:44:26;16.20;99.90
39503;DHT22;26970;49.900;10.774;2022-07-01T04:46:52;16.10;99.90
39503;DHT22;26970;49.900;10.774;2022-07-01T04:49:18;16.10;99.90
39503;DHT22;26970;49.900;10.774;2022-07-01T04:51:43;16.10;99.90
39503;DHT22;26970;49.900;10.774;2022-07-01T04:54:09;16.00;99.90
39503;DHT22;26970;49.900;10.774;2022-07-01T04:56:35;15.80;99.90
39503;DHT22;26970;49.900;10.774;2022-07-01T04:59:02;15.90;99.90
39503;DHT22;26970;49.900;10.774;2022-07-01T05:01:27;16.00;99.90
39503;DHT22;26970;49.900;10.774;2022-07-01T05:03:57;16.00;99.90
39503;DHT22;26970;49.900;10.774;2022-07-01T05:06:23;15.90;99.90
39503;DHT22;26970;49.900;10.774;2022-07-01T05:08:49;15.90;99.90
39503;DHT22;26970;49.900;10.774;2022-07-01T05:11:14;15.80;99.90
39503;DHT22;26970;49.900;10.774;2022-07-01T05:13:40;15.80;99.90
39503;DHT22;26970;49.900;10.774;2022-07-01T05:16:06;15.70;99.90
39503;DHT22;26970;49.900;10.774;2022-07-01T05:18:34;15.60;99.90
39503;DHT22;26970;49.900;10.774;2022-07-01T05:21:18;15.70;99.90
39503;DHT22;26970;49.900;10.774;2022-07-01T05:24:03;15.80;99.90
39503;DHT22;26970;49.900;10.774;2022-07-01T05:26:28;15.70;99.90
39503;DHT22;26970;49.900;10.774;2022-07-01T05:28:54;15.70;99.90
39503;DHT22;26970;49.900;10.774;2022-07-01T05:31:21;15.70;99.90
39503;DHT22;26970;49.900;10.774;2022-07-01T05:33:47;15.60;99.90
39503;DHT22;26970;49.900;10.774;2022-07-01T05:36:13;15.60;99.90
39503;DHT22;26970;49.900;10.774;2022-07-01T05:38:39;15.60;99.90
39503;DHT22;26970;49.900;10.774;2022-07-01T05:41:04;15.70;99.90
39503;DHT22;26970;49.900;10.774;2022-07-01T05:43:30;15.70;99.90
39503;DHT22;26970;49.900;10.774;2022-07-01T05:45:56;15.70;99.90
39503;DHT22;26970;49.900;10.774;2022-07-01T05:48:22;15.70;99.90
39503;DHT22;26970;49.900;10.774;2022-07-01T05:50:48;15.70;99.90
39503;DHT22;26970;49.900;10.774;2022-07-01T05:53:14;15.60;99.90
39503;DHT22;26970;49.900;10.774;2022-07-01T05:55:40;15.60;99.90
39503;DHT22;26970;49.900;10.774;2022-07-01T05:58:05;15.70;99.90
39503;DHT22;26970;49.900;10.774;2022-07-01T06:00:34;15.70;99.90
39503;DHT22;26970;49.900;10.774;2022-07-01T06:02:59;15.80;99.90
39503;DHT22;26970;49.900;10.774;2022-07-01T06:05:25;15.80;99.90
39503;DHT22;26970;49.900;10.774;2022-07-01T06:07:50;15.80;99.90
39503;DHT22;26970;49.900;10.774;2022-07-01T06:10:16;15.80;99.90
39503;DHT22;26970;49.900;10.774;2022-07-01T06:12:41;15.80;99.90
39503;DHT22;26970;49.900;10.774;2022-07-01T06:15:09;15.80;99.90
39503;DHT22;26970;49.900;10.774;2022-07-01T06:17:35;15.70;99.90
39503;DHT22;26970;49.900;10.774;2022-07-01T06:20:01;15.70;99.90
39503;DHT22;26970;49.900;10.774;2022-07-01T06:22:27;15.70;99.90
39503;DHT22;26970;49.900;10.774;2022-07-01T06:24:52;15.60;99.90
39503;DHT22;26970;49.900;10.774;2022-07-01T06:27:18;15.80;99.90
39503;DHT22;26970;49.900;10.774;2022-07-01T06:29:43;15.70;99.90
39503;DHT22;26970;49.900;10.774;2022-07-01T06:32:09;15.70;99.90
39503;DHT22;26970;49.900;10.774;2022-07-01T06:34:35;15.70;99.90
39503;DHT22;26970;49.900;10.774;2022-07-01T06:37:00;15.70;99.90
39503;DHT22;26970;49.900;10.774;2022-07-01T06:39:27;15.60;99.90
39503;DHT22;26970;49.900;10.774;2022-07-01T06:41:53;15.60;99.90
39503;DHT22;26970;49.900;10.774;2022-07-01T06:44:18;15.50;99.90
39503;DHT22;26970;49.900;10.774;2022-07-01T06:46:44;15.60;99.90
39503;DHT22;26970;49.900;10.774;2022-07-01T06:49:10;15.70;99.90
39503;DHT22;26970;49.900;10.774;2022-07-01T06:51:36;15.60;99.90
39503;DHT22;26970;49.900;10.774;2022-07-01T06:54:01;15.60;99.90
39503;DHT22;26970;49.900;10.774;2022-07-01T06:56:27;15.60;99.90
39503;DHT22;26970;49.900;10.774;2022-07-01T06:58:53;15.60;99.90
39503;DHT22;26970;49.900;10.774;2022-07-01T07:01:18;15.70;99.90
39503;DHT22;26970;49.900;10.774;2022-07-01T07:03:44;15.60;99.90
39503;DHT22;26970;49.900;10.774;2022-07-01T07:06:09;15.50;99.90
39503;DHT22;26970;49.900;10.774;2022-07-01T07:08:35;15.50;99.90
39503;DHT22;26970;49.900;10.774;2022-07-01T07:11:00;15.60;99.90
39503;DHT22;26970;49.900;10.774;2022-07-01T07:13:28;15.60;99.90
39503;DHT22;26970;49.900;10.774;2022-07-01T07:15:54;15.60;99.90
39503;DHT22;26970;49.900;10.774;2022-07-01T07:18:19;15.60;99.90
39503;DHT22;26970;49.900;10.774;2022-07-01T07:20:45;15.50;99.90
39503;DHT22;26970;49.900;10.774;2022-07-01T07:23:13;15.50;99.90
39503;DHT22;26970;49.900;10.774;2022-07-01T07:25:39;15.50;99.90
39503;DHT22;26970;49.900;10.774;2022-07-01T07:28:04;15.50;99.90
39503;DHT22;26970;49.900;10.774;2022-07-01T07:30:30;15.50;99.90
39503;DHT22;26970;49.900;10.774;2022-07-01T07:32:55;15.60;99.90
39503;DHT22;26970;49.900;10.774;2022-07-01T07:35:21;15.60;99.90
39503;DHT22;26970;49.900;10.774;2022-07-01T07:37:46;15.60;99.90
39503;DHT22;26970;49.900;10.774;2022-07-01T07:40:12;15.60;99.90
39503;DHT22;26970;49.900;10.774;2022-07-01T07:42:40;15.60;99.90
39503;DHT22;26970;49.900;10.774;2022-07-01T07:45:07;15.60;99.90
39503;DHT22;26970;49.900;10.774;2022-07-01T07:47:34;15.60;99.90
39503;DHT22;26970;49.900;10.774;2022-07-01T07:50:00;15.60;99.90
39503;DHT22;26970;49.900;10.774;2022-07-01T07:52:25;15.60;99.90
39503;DHT22;26970;49.900;10.774;2022-07-01T07:54:51;15.70;99.90
39503;DHT22;26970;49.900;10.774;2022-07-01T07:57:16;15.60;99.90
39503;DHT22;26970;49.900;10.774;2022-07-01T07:59:42;15.60;99.90
39503;DHT22;26970;49.900;10.774;2022-07-01T08:02:08;15.60;99.90
39503;DHT22;26970;49.900;10.774;2022-07-01T08:04:33;15.60;99.90
39503;DHT22;26970;49.900;10.774;2022-07-01T08:06:59;15.60;99.90
39503;DHT22;26970;49.900;10.774;2022-07-01T08:09:26;15.60;99.90
39503;DHT22;26970;49.900;10.774;2022-07-01T08:11:51;15.60;99.90
39503;DHT22;26970;49.900;10.774;2022-07-01T08:14:17;15.70;99.90
39503;DHT22;26970;49.900;10.774;2022-07-01T08:16:42;15.70;99.90
39503;DHT22;26970;49.900;10.774;2022-07-01T08:19:08;15.70;99.90
39503;DHT22;26970;49.900;10.774;2022-07-01T08:21:33;15.50;99.90
39503;DHT22;26970;49.900;10.774;2022-07-01T08:23:59;15.50;99.90
39503;DHT22;26970;49.900;10.774;2022-07-01T08:26:25;15.50;99.90
39503;DHT22;26970;49.900;10.774;2022-07-01T08:28:50;15.50;99.90
39503;DHT22;26970;49.900;10.774;2022-07-01T08:31:16;15.50;99.90
39503;DHT22;26970;49.900;10.774;2022-07-01T08:33:42;15.50;99.90
39503;DHT22;26970;49.900;10.774;2022-07-01T08:36:09;15.60;99.90
39503;DHT22;26970;49.900;10.774;2022-07-01T08:38:35;15.60;99.90
39503;DHT22;26970;49.900;10.774;2022-07-01T08:41:00;15.60;99.90
39503;DHT22;26970;49.900;10.774;2022-07-01T08:43:27;15.60;99.90
39503;DHT22;26970;49.900;10.774;2022-07-01T08:45:53;15.60;99.90
39503;DHT22;26970;49.900;10.774;2022-07-01T08:48:18;15.70;99.90
39503;DHT22;26970;49.900;10.774;2022-07-01T08:50:44;15.80;99.90
39503;DHT22;26970;49.900;10.774;2022-07-01T08:53:11;15.80;99.90
39503;DHT22;26970;49.900;10.774;2022-07-01T08:55:37;15.90;99.90
39503;DHT22;26970;49.900;10.774;2022-07-01T08:58:23;15.80;99.90
39503;DHT22;26970;49.900;10.774;2022-07-01T09:00:49;15.80;99.90
39503;DHT22;26970;49.900;10.774;2022-07-01T09:03:15;15.90;99.90
39503;DHT22;26970;49.900;10.774;2022-07-01T09:05:49;15.90;99.90
39503;DHT22;26970;49.900;10.774;2022-07-01T09:08:14;15.90;99.90
39503;DHT22;26970;49.900;10.774;2022-07-01T09:10:40;15.80;99.90
39503;DHT22;26970;49.900;10.774;2022-07-01T09:13:07;15.80;99.90
39503;DHT22;26970;49.900;10.774;2022-07-01T09:15:34;15.90;99.90
39503;DHT22;26970;49.900;10.774;2022-07-01T09:18:05;15.90;99.90
39503;DHT22;26970;49.900;10.774;2022-07-01T09:20:34;15.90;99.90
39503;DHT22;26970;49.900;10.774;2022-07-01T09:23:05;15.90;99.90
39503;DHT22;26970;49.900;10.774;2022-07-01T09:25:39;15.80;99.90
39503;DHT22;26970;49.900;10.774;2022-07-01T09:28:15;15.90;99.90
39503;DHT22;26970;49.900;10.774;2022-07-01T09:30:48;15.80;99.90
39503;DHT22;26970;49.900;10.774;2022-07-01T09:33:17;15.70;99.90
39503;DHT22;26970;49.900;10.774;2022-07-01T09:35:44;15.70;99.90
39503;DHT22;26970;49.900;10.774;2022-07-01T09:38:14;15.70;99.90
39503;DHT22;26970;49.900;10.774;2022-07-01T09:45:53;15.70;99.90
39503;DHT22;26970;49.900;10.774;2022-07-01T09:48:20;15.70;99.90
39503;DHT22;26970;49.900;10.774;2022-07-01T09:50:45;15.50;99.90
39503;DHT22;26970;49.900;10.774;2022-07-01T09:53:12;15.60;99.90
39503;DHT22;26970;49.900;10.774;2022-07-01T09:55:39;15.50;99.90
39503;DHT22;26970;49.900;10.774;2022-07-01T09:58:06;15.40;99.90
39503;DHT22;26970;49.900;10.774;2022-07-01T10:00:31;15.50;99.90
39503;DHT22;26970;49.900;10.774;2022-07-01T10:03:00;15.50;99.90
39503;DHT22;26970;49.900;10.774;2022-07-01T10:05:27;15.60;99.90
39503;DHT22;26970;49.900;10.774;2022-07-01T10:08:23;15.70;99.90
39503;DHT22;26970;49.900;10.774;2022-07-01T10:13:40;15.80;99.90
39503;DHT22;26970;49.900;10.774;2022-07-01T10:16:08;15.80;99.90
39503;DHT22;26970;49.900;10.774;2022-07-01T10:18:34;15.80;99.90
39503;DHT22;26970;49.900;10.774;2022-07-01T10:21:00;15.70;99.90
39503;DHT22;26970;49.900;10.774;2022-07-01T10:23:41;15.70;99.90
39503;DHT22;26970;49.900;10.774;2022-07-01T10:26:07;15.70;99.90
39503;DHT22;26970;49.900;10.774;2022-07-01T10:31:09;15.60;99.90
39503;DHT22;26970;49.900;10.774;2022-07-01T10:33:58;15.50;99.90
39503;DHT22;26970;49.900;10.774;2022-07-01T10:36:32;15.50;99.90
39503;DHT22;26970;49.900;10.774;2022-07-01T10:41:40;15.10;99.90
39503;DHT22;26970;49.900;10.774;2022-07-01T10:44:14;15.00;99.90
39503;DHT22;26970;49.900;10.774;2022-07-01T10:46:44;14.90;99.90
39503;DHT22;26970;49.900;10.774;2022-07-01T10:52:12;15.10;99.90
39503;DHT22;26970;49.900;10.774;2022-07-01T10:59:53;15.50;99.90
39503;DHT22;26970;49.900;10.774;2022-07-01T11:02:35;15.70;99.90
39503;DHT22;26970;49.900;10.774;2022-07-01T11:05:02;15.80;99.90
39503;DHT22;26970;49.900;10.774;2022-07-01T11:07:33;15.80;99.90
39503;DHT22;26970;49.900;10.774;2022-07-01T11:10:00;15.80;99.90
39503;DHT22;26970;49.900;10.774;2022-07-01T11:12:28;15.70;99.90
39503;DHT22;26970;49.900;10.774;2022-07-01T11:14:55;15.70;99.90
39503;DHT22;26970;49.900;10.774;2022-07-01T11:17:21;15.60;99.90
39503;DHT22;26970;49.900;10.774;2022-07-01T11:19:52;15.60;99.90
39503;DHT22;26970;49.900;10.774;2022-07-01T11:22:23;15.70;99.90
39503;DHT22;26970;49.900;10.774;2022-07-01T11:24:53;15.60;99.90
39503;DHT22;26970;49.900;10.774;2022-07-01T11:27:19;15.80;99.90
39503;DHT22;26970;49.900;10.774;2022-07-01T11:29:51;15.80;99.90
39503;DHT22;26970;49.900;10.774;2022-07-01T11:32:29;15.90;99.90
39503;DHT22;26970;49.900;10.774;2022-07-01T11:34:56;15.90;99.90
39503;DHT22;26970;49.900;10.774;2022-07-01T11:37:22;15.80;99.90
39503;DHT22;26970;49.900;10.774;2022-07-01T11:40:11;15.80;99.90
39503;DHT22;26970;49.900;10.774;2022-07-01T11:42:37;15.90;99.90
39503;DHT22;26970;49.900;10.774;2022-07-01T11:45:03;15.90;99.90
39503;DHT22;26970;49.900;10.774;2022-07-01T11:47:29;15.90;99.90
39503;DHT22;26970;49.900;10.774;2022-07-01T11:49:56;15.70;99.90
39503;DHT22;26970;49.900;10.774;2022-07-01T11:52:22;15.90;99.90
39503;DHT22;26970;49.900;10.774;2022-07-01T11:54:53;16.00;99.90
39503;DHT22;26970;49.900;10.774;2022-07-01T11:57:24;16.00;99.90
39503;DHT22;26970;49.900;10.774;2022-07-01T11:59:51;16.00;99.90
39503;DHT22;26970;49.900;10.774;2022-07-01T12:02:19;15.90;99.90
39503;DHT22;26970;49.900;10.774;2022-07-01T12:04:47;15.90;99.90
39503;DHT22;26970;49.900;10.774;2022-07-01T12:07:14;15.90;99.90
39503;DHT22;26970;49.900;10.774;2022-07-01T12:09:40;16.00;99.90
39503;DHT22;26970;49.900;10.774;2022-07-01T12:12:07;15.80;99.90
39503;DHT22;26970;49.900;10.774;2022-07-01T12:14:34;15.80;99.90
39503;DHT22;26970;49.900;10.774;2022-07-01T12:17:03;15.70;99.90
39503;DHT22;26970;49.900;10.774;2022-07-01T12:19:39;15.70;99.90
39503;DHT22;26970;49.900;10.774;2022-07-01T12:22:13;15.80;99.90
39503;DHT22;26970;49.900;10.774;2022-07-01T12:24:41;15.60;99.90
39503;DHT22;26970;49.900;10.774;2022-07-01T12:27:07;15.50;99.90
39503;DHT22;26970;49.900;10.774;2022-07-01T12:32:11;15.20;99.90
39503;DHT22;26970;49.900;10.774;2022-07-01T12:37:10;15.10;99.90
39503;DHT22;26970;49.900;10.774;2022-07-01T12:39:57;15.00;99.90
39503;DHT22;26970;49.900;10.774;2022-07-01T12:42:27;14.90;99.90
39503;DHT22;26970;49.900;10.774;2022-07-01T12:44:59;15.10;99.90
39503;DHT22;26970;49.900;10.774;2022-07-01T12:47:36;15.10;99.90
39503;DHT22;26970;49.900;10.774;2022-07-01T12:50:18;15.00;99.90
39503;DHT22;26970;49.900;10.774;2022-07-01T12:55:31;14.90;99.90
39503;DHT22;26970;49.900;10.774;2022-07-01T12:57:58;15.00;99.90
39503;DHT22;26970;49.900;10.774;2022-07-01T13:00:25;14.90;99.90
39503;DHT22;26970;49.900;10.774;2022-07-01T13:02:54;14.90;99.90
39503;DHT22;26970;49.900;10.774;2022-07-01T13:05:20;15.00;99.90
39503;DHT22;26970;49.900;10.774;2022-07-01T13:07:46;15.10;99.90
39503;DHT22;26970;49.900;10.774;2022-07-01T13:10:13;15.10;99.90
39503;DHT22;26970;49.900;10.774;2022-07-01T13:12:39;15.10;99.90
39503;DHT22;26970;49.900;10.774;2022-07-01T13:15:05;15.10;99.90
39503;DHT22;26970;49.900;10.774;2022-07-01T13:17:31;15.00;99.90
39503;DHT22;26970;49.900;10.774;2022-07-01T13:19:57;15.10;99.90
39503;DHT22;26970;49.900;10.774;2022-07-01T13:22:23;15.30;99.90
39503;DHT22;26970;49.900;10.774;2022-07-01T13:24:48;15.30;99.90
39503;DHT22;26970;49.900;10.774;2022-07-01T13:27:14;15.60;99.90
39503;DHT22;26970;49.900;10.774;2022-07-01T13:29:39;15.80;99.90
39503;DHT22;26970;49.900;10.774;2022-07-01T13:32:05;15.80;99.90
39503;DHT22;26970;49.900;10.774;2022-07-01T13:34:33;15.90;99.90
39503;DHT22;26970;49.900;10.774;2022-07-01T13:36:58;15.80;99.90
39503;DHT22;26970;49.900;10.774;2022-07-01T13:39:24;15.70;99.90
39503;DHT22;26970;49.900;10.774;2022-07-01T13:41:50;15.60;99.90
39503;DHT22;26970;49.900;10.774;2022-07-01T13:44:15;15.40;99.90
39503;DHT22;26970;49.900;10.774;2022-07-01T13:46:41;15.30;99.90
39503;DHT22;26970;49.900;10.774;2022-07-01T13:49:07;15.10;99.90
39503;DHT22;26970;49.900;10.774;2022-07-01T13:51:33;14.90;99.90
39503;DHT22;26970;49.900;10.774;2022-07-01T13:53:58;14.80;99.90
39503;DHT22;26970;49.900;10.774;2022-07-01T13:56:25;14.70;99.90
39503;DHT22;26970;49.900;10.774;2022-07-01T13:58:51;14.50;99.90
39503;DHT22;26970;49.900;10.774;2022-07-01T14:01:18;14.30;99.90
39503;DHT22;26970;49.900;10.774;2022-07-01T14:03:44;14.40;99.90
39503;DHT22;26970;49.900;10.774;2022-07-01T14:06:10;14.50;99.90
39503;DHT22;26970;49.900;10.774;2022-07-01T14:08:35;14.60;99.90
39503;DHT22;26970;49.900;10.774;2022-07-01T14:11:01;14.80;99.90
39503;DHT22;26970;49.900;10.774;2022-07-01T14:13:26;14.90;99.90
39503;DHT22;26970;49.900;10.774;2022-07-01T14:15:52;14.80;99.90
39503;DHT22;26970;49.900;10.774;2022-07-01T14:18:19;14.90;99.90
39503;DHT22;26970;49.900;10.774;2022-07-01T14:20:45;15.10;99.90
39503;DHT22;26970;49.900;10.774;2022-07-01T14:23:10;15.20;99.90
39503;DHT22;26970;49.900;10.774;2022-07-01T14:25:36;15.20;99.90
39503;DHT22;26970;49.900;10.774;2022-07-01T14:28:02;15.10;99.90
39503;DHT22;26970;49.900;10.774;2022-07-01T14:30:28;15.30;99.90
39503;DHT22;26970;49.900;10.774;2022-07-01T14:32:53;15.50;99.90
39503;DHT22;26970;49.900;10.774;2022-07-01T14:35:19;15.60;99.90
39503;DHT22;26970;49.900;10.774;2022-07-01T14:37:44;15.80;99.90
39503;DHT22;26970;49.900;10.774;2022-07-01T14:40:11;15.90;99.90
39503;DHT22;26970;49.900;10.774;2022-07-01T14:42:38;16.00;99.90
39503;DHT22;26970;49.900;10.774;2022-07-01T14:45:05;16.00;99.90
39503;DHT22;26970;49.900;10.774;2022-07-01T14:47:31;16.00;99.90
39503;DHT22;26970;49.900;10.774;2022-07-01T14:49:58;16.00;99.90
39503;DHT22;26970;49.900;10.774;2022-07-01T14:52:24;16.00;99.90
39503;DHT22;26970;49.900;10.774;2022-07-01T14:54:50;16.00;99.90
39503;DHT22;26970;49.900;10.774;2022-07-01T14:57:16;15.90;99.90
39503;DHT22;26970;49.900;10.774;2022-07-01T14:59:42;16.00;99.90
39503;DHT22;26970;49.900;10.774;2022-07-01T15:02:07;15.90;99.90
39503;DHT22;26970;49.900;10.774;2022-07-01T15:04:33;16.10;99.90
39503;DHT22;26970;49.900;10.774;2022-07-01T15:06:59;16.10;99.90
39503;DHT22;26970;49.900;10.774;2022-07-01T15:09:26;16.30;99.90
39503;DHT22;26970;49.900;10.774;2022-07-01T15:11:52;16.20;99.90
39503;DHT22;26970;49.900;10.774;2022-07-01T15:14:18;16.50;99.90
39503;DHT22;26970;49.900;10.774;2022-07-01T15:16:44;16.70;99.90
39503;DHT22;26970;49.900;10.774;2022-07-01T15:19:10;16.60;99.90
39503;DHT22;26970;49.900;10.774;2022-07-01T15:21:36;16.50;99.90
39503;DHT22;26970;49.900;10.774;2022-07-01T15:24:03;16.60;99.90
39503;DHT22;26970;49.900;10.774;2022-07-01T15:26:28;16.90;99.90
39503;DHT22;26970;49.900;10.774;2022-07-01T15:28:54;16.90;99.90
39503;DHT22;26970;49.900;10.774;2022-07-01T15:31:20;17.10;99.90
39503;DHT22;26970;49.900;10.774;2022-07-01T15:33:46;17.20;99.90
39503;DHT22;26970;49.900;10.774;2022-07-01T15:36:12;17.20;99.90
39503;DHT22;26970;49.900;10.774;2022-07-01T15:38:38;17.00;99.90
39503;DHT22;26970;49.900;10.774;2022-07-01T15:41:04;16.90;99.90
39503;DHT22;26970;49.900;10.774;2022-07-01T15:43:32;16.90;99.90